sensor_id;sensor_type;location;lat;lon;timestamp;P1;durP1;ratioP1;P2;durP2;ratioP2
3427;SDS011;1727;42.624;23.406;2022-10-31T00:00:03;4.57;;;4.17;;
3427;SDS011;1727;42.624;23.406;2022-10-31T00:02:32;5.23;;;4.20;;
3427;SDS011;1727;42.624;23.406;2022-10-31T00:04:58;5.77;;;4.27;;
3427;SDS011;1727;42.624;23.406;2022-10-31T00:07:25;6.93;;;4.53;;
3427;SDS011;1727;42.624;23.406;2022-10-31T00:09:53;6.70;;;3.90;;
3427;SDS011;1727;42.624;23.406;2022-10-31T00:12:20;4.23;;;3.83;;
3427;SDS011;1727;42.624;23.406;2022-10-31T00:14:47;10.50;;;4.40;;
3427;SDS011;1727;42.624;23.406;2022-10-31T00:17:13;11.03;;;3.87;;
3427;SDS011;1727;42.624;23.406;2022-10-31T00:19:40;5.83;;;4.10;;
3427;SDS011;1727;42.624;23.406;2022-10-31T00:22:07;6.40;;;3.90;;
3427;SDS011;1727;42.624;23.406;2022-10-31T00:24:34;5.50;;;5.00;;
3427;SDS011;1727;42.624;23.406;2022-10-31T00:27:02;6.53;;;3.80;;
3427;SDS011;1727;42.624;23.406;2022-10-31T00:29:29;8.30;;;4.73;;
3427;SDS011;1727;42.624;23.406;2022-10-31T00:31:55;5.47;;;3.97;;
3427;SDS011;1727;42.624;23.406;2022-10-31T00:34:22;6.77;;;4.00;;
3427;SDS011;1727;42.624;23.406;2022-10-31T00:36:49;5.33;;;4.20;;
3427;SDS011;1727;42.624;23.406;2022-10-31T00:39:16;9.07;;;4.50;;
3427;SDS011;1727;42.624;23.406;2022-10-31T00:41:42;6.50;;;4.40;;
3427;SDS011;1727;42.624;23.406;2022-10-31T00:44:10;4.43;;;3.67;;
3427;SDS011;1727;42.624;23.406;2022-10-31T00:46:37;8.83;;;4.13;;
3427;SDS011;1727;42.624;23.406;2022-10-31T00:49:04;7.53;;;4.57;;
3427;SDS011;1727;42.624;23.406;2022-10-31T00:51:31;5.77;;;3.90;;
3427;SDS011;1727;42.624;23.406;2022-10-31T00:53:57;5.47;;;3.80;;
3427;SDS011;1727;42.624;23.406;2022-10-31T00:56:24;5.50;;;3.90;;
3427;SDS011;1727;42.624;23.406;2022-10-31T00:58:51;5.63;;;3.87;;
3427;SDS011;1727;42.624;23.406;2022-10-31T01:01:19;12.93;;;4.63;;
3427;SDS011;1727;42.624;23.406;2022-10-31T01:03:46;5.80;;;3.80;;
3427;SDS011;1727;42.624;23.406;2022-10-31T01:06:13;7.30;;;5.57;;
3427;SDS011;1727;42.624;23.406;2022-10-31T01:08:41;6.70;;;4.00;;
3427;SDS011;1727;42.624;23.406;2022-10-31T01:11:09;7.33;;;3.83;;
3427;SDS011;1727;42.624;23.406;2022-10-31T01:13:38;4.00;;;3.40;;
3427;SDS011;1727;42.624;23.406;2022-10-31T01:16:06;5.47;;;4.13;;
3427;SDS011;1727;42.624;23.406;2022-10-31T01:18:35;4.83;;;3.40;;
3427;SDS011;1727;42.624;23.406;2022-10-31T01:21:03;4.50;;;4.03;;
3427;SDS011;1727;42.624;23.406;2022-10-31T01:23:31;7.20;;;4.20;;
3427;SDS011;1727;42.624;23.406;2022-10-31T01:25:59;7.63;;;4.90;;
3427;SDS011;1727;42.624;23.406;2022-10-31T01:28:30;6.93;;;3.97;;
3427;SDS011;1727;42.624;23.406;2022-10-31T01:30:59;4.53;;;4.13;;
3427;SDS011;1727;42.624;23.406;2022-10-31T01:33:27;5.57;;;4.07;;
3427;SDS011;1727;42.624;23.406;2022-10-31T01:35:55;5.60;;;4.23;;
3427;SDS011;1727;42.624;23.406;2022-10-31T01:38:22;6.47;;;4.17;;
3427;SDS011;1727;42.624;23.406;2022-10-31T01:40:49;7.00;;;4.57;;
3427;SDS011;1727;42.624;23.406;2022-10-31T01:43:16;4.30;;;3.93;;
3427;SDS011;1727;42.624;23.406;2022-10-31T01:45:43;5.07;;;4.57;;
3427;SDS011;1727;42.624;23.406;2022-10-31T01:48:15;5.37;;;4.40;;
3427;SDS011;1727;42.624;23.406;2022-10-31T01:50:46;5.73;;;3.70;;
3427;SDS011;1727;42.624;23.406;2022-10-31T01:53:16;6.60;;;3.90;;
3427;SDS011;1727;42.624;23.406;2022-10-31T01:55:45;5.97;;;4.27;;
3427;SDS011;1727;42.624;23.406;2022-10-31T01:58:14;5.17;;;4.67;;
3427;SDS011;1727;42.624;23.406;2022-10-31T02:00:44;7.10;;;4.40;;
3427;SDS011;1727;42.624;23.406;2022-10-31T02:03:16;6.93;;;4.50;;
3427;SDS011;1727;42.624;23.406;2022-10-31T02:05:44;5.13;;;3.93;;
3427;SDS011;1727;42.624;23.406;2022-10-31T02:08:12;8.73;;;4.80;;
3427;SDS011;1727;42.624;23.406;2022-10-31T02:10:44;5.77;;;4.03;;
3427;SDS011;1727;42.624;23.406;2022-10-31T02:13:11;4.20;;;3.80;;
3427;SDS011;1727;42.624;23.406;2022-10-31T02:15:39;6.40;;;4.50;;
3427;SDS011;1727;42.624;23.406;2022-10-31T02:18:08;7.40;;;4.00;;
3427;SDS011;1727;42.624;23.406;2022-10-31T02:20:37;6.47;;;4.20;;
3427;SDS011;1727;42.624;23.406;2022-10-31T02:23:14;9.20;;;4.30;;
3427;SDS011;1727;42.624;23.406;2022-10-31T02:26:02;4.87;;;3.97;;
3427;SDS011;1727;42.624;23.406;2022-10-31T02:28:55;6.80;;;3.53;;
3427;SDS011;1727;42.624;23.406;2022-10-31T02:31:35;5.23;;;4.10;;
3427;SDS011;1727;42.624;23.406;2022-10-31T02:34:10;4.30;;;3.90;;
3427;SDS011;1727;42.624;23.406;2022-10-31T02:36:47;4.40;;;3.63;;
3427;SDS011;1727;42.624;23.406;2022-10-31T02:39:23;5.87;;;4.30;;
3427;SDS011;1727;42.624;23.406;2022-10-31T02:41:56;6.30;;;4.57;;
3427;SDS011;1727;42.624;23.406;2022-10-31T02:44:32;6.47;;;4.27;;
3427;SDS011;1727;42.624;23.406;2022-10-31T02:47:05;5.27;;;4.13;;
3427;SDS011;1727;42.624;23.406;2022-10-31T02:49:35;5.20;;;4.03;;
3427;SDS011;1727;42.624;23.406;2022-10-31T02:52:13;6.90;;;4.90;;
3427;SDS011;1727;42.624;23.406;2022-10-31T02:54:43;5.83;;;4.30;;
3427;SDS011;1727;42.624;23.406;2022-10-31T02:57:11;5.10;;;3.70;;
3427;SDS011;1727;42.624;23.406;2022-10-31T02:59:40;5.10;;;3.50;;
3427;SDS011;1727;42.624;23.406;2022-10-31T03:02:22;4.93;;;4.53;;
3427;SDS011;1727;42.624;23.406;2022-10-31T03:05:06;7.00;;;4.03;;
3427;SDS011;1727;42.624;23.406;2022-10-31T03:07:42;8.83;;;4.93;;
3427;SDS011;1727;42.624;23.406;2022-10-31T03:10:22;8.03;;;4.50;;
3427;SDS011;1727;42.624;23.406;2022-10-31T03:12:58;7.97;;;4.30;;
3427;SDS011;1727;42.624;23.406;2022-10-31T03:15:33;5.50;;;4.07;;
3427;SDS011;1727;42.624;23.406;2022-10-31T03:18:05;10.60;;;4.73;;
3427;SDS011;1727;42.624;23.406;2022-10-31T03:20:36;5.40;;;4.10;;
3427;SDS011;1727;42.624;23.406;2022-10-31T03:23:08;5.17;;;4.07;;
3427;SDS011;1727;42.624;23.406;2022-10-31T03:25:39;9.73;;;4.30;;
3427;SDS011;1727;42.624;23.406;2022-10-31T03:28:08;8.20;;;5.03;;
3427;SDS011;1727;42.624;23.406;2022-10-31T03:30:38;7.60;;;5.13;;
3427;SDS011;1727;42.624;23.406;2022-10-31T03:33:10;5.10;;;4.43;;
3427;SDS011;1727;42.624;23.406;2022-10-31T03:35:41;4.83;;;4.43;;
3427;SDS011;1727;42.624;23.406;2022-10-31T03:38:12;6.80;;;5.17;;
3427;SDS011;1727;42.624;23.406;2022-10-31T03:40:41;13.03;;;5.10;;
3427;SDS011;1727;42.624;23.406;2022-10-31T03:43:12;6.37;;;4.90;;
3427;SDS011;1727;42.624;23.406;2022-10-31T03:45:43;8.77;;;5.47;;
3427;SDS011;1727;42.624;23.406;2022-10-31T03:48:14;7.47;;;6.37;;
3427;SDS011;1727;42.624;23.406;2022-10-31T03:50:45;6.33;;;5.37;;
3427;SDS011;1727;42.624;23.406;2022-10-31T03:53:20;5.80;;;5.17;;
3427;SDS011;1727;42.624;23.406;2022-10-31T03:55:52;6.87;;;5.20;;
3427;SDS011;1727;42.624;23.406;2022-10-31T03:58:29;9.40;;;4.90;;
3427;SDS011;1727;42.624;23.406;2022-10-31T04:01:02;8.70;;;4.93;;
3427;SDS011;1727;42.624;23.406;2022-10-31T04:03:33;6.90;;;5.20;;
3427;SDS011;1727;42.624;23.406;2022-10-31T04:06:04;6.50;;;5.67;;
3427;SDS011;1727;42.624;23.406;2022-10-31T04:08:36;7.77;;;5.00;;
3427;SDS011;1727;42.624;23.406;2022-10-31T04:11:06;5.70;;;5.07;;
3427;SDS011;1727;42.624;23.406;2022-10-31T04:13:37;7.13;;;4.63;;
3427;SDS011;1727;42.624;23.406;2022-10-31T04:16:05;9.17;;;5.17;;
3427;SDS011;1727;42.624;23.406;2022-10-31T04:18:35;5.90;;;5.30;;
3427;SDS011;1727;42.624;23.406;2022-10-31T04:21:03;7.07;;;5.30;;
3427;SDS011;1727;42.624;23.406;2022-10-31T04:23:31;7.00;;;5.17;;
3427;SDS011;1727;42.624;23.406;2022-10-31T04:25:59;8.70;;;5.57;;
3427;SDS011;1727;42.624;23.406;2022-10-31T04:28:26;6.73;;;4.90;;
3427;SDS011;1727;42.624;23.406;2022-10-31T04:30:53;10.97;;;5.63;;
3427;SDS011;1727;42.624;23.406;2022-10-31T04:33:20;6.70;;;4.57;;
3427;SDS011;1727;42.624;23.406;2022-10-31T04:35:48;10.00;;;6.10;;
3427;SDS011;1727;42.624;23.406;2022-10-31T04:38:15;8.57;;;5.27;;
3427;SDS011;1727;42.624;23.406;2022-10-31T04:40:42;7.90;;;6.03;;
3427;SDS011;1727;42.624;23.406;2022-10-31T04:43:09;9.13;;;5.63;;
3427;SDS011;1727;42.624;23.406;2022-10-31T04:45:36;6.00;;;5.40;;
3427;SDS011;1727;42.624;23.406;2022-10-31T04:48:03;11.10;;;5.17;;
3427;SDS011;1727;42.624;23.406;2022-10-31T04:50:30;8.83;;;5.10;;
3427;SDS011;1727;42.624;23.406;2022-10-31T04:52:58;5.97;;;4.47;;
3427;SDS011;1727;42.624;23.406;2022-10-31T04:55:25;10.60;;;5.73;;
3427;SDS011;1727;42.624;23.406;2022-10-31T04:57:52;8.97;;;5.03;;
3427;SDS011;1727;42.624;23.406;2022-10-31T05:00:19;7.40;;;4.60;;
3427;SDS011;1727;42.624;23.406;2022-10-31T05:02:48;14.03;;;5.63;;
3427;SDS011;1727;42.624;23.406;2022-10-31T05:05:16;10.67;;;5.37;;
3427;SDS011;1727;42.624;23.406;2022-10-31T05:07:44;8.50;;;5.57;;
3427;SDS011;1727;42.624;23.406;2022-10-31T05:10:14;19.97;;;6.03;;
3427;SDS011;1727;42.624;23.406;2022-10-31T05:12:46;6.73;;;5.07;;
3427;SDS011;1727;42.624;23.406;2022-10-31T05:15:14;6.63;;;5.03;;
3427;SDS011;1727;42.624;23.406;2022-10-31T05:17:41;12.87;;;5.80;;
3427;SDS011;1727;42.624;23.406;2022-10-31T05:20:09;9.83;;;6.53;;
3427;SDS011;1727;42.624;23.406;2022-10-31T05:22:36;8.53;;;5.63;;
3427;SDS011;1727;42.624;23.406;2022-10-31T05:25:03;6.60;;;5.33;;
3427;SDS011;1727;42.624;23.406;2022-10-31T05:27:32;14.60;;;5.73;;
3427;SDS011;1727;42.624;23.406;2022-10-31T05:29:58;16.40;;;7.67;;
3427;SDS011;1727;42.624;23.406;2022-10-31T05:32:25;9.60;;;7.53;;
3427;SDS011;1727;42.624;23.406;2022-10-31T05:34:52;14.67;;;8.00;;
3427;SDS011;1727;42.624;23.406;2022-10-31T05:37:19;11.90;;;6.77;;
3427;SDS011;1727;42.624;23.406;2022-10-31T05:39:45;14.07;;;7.90;;
3427;SDS011;1727;42.624;23.406;2022-10-31T05:42:12;16.37;;;7.37;;
3427;SDS011;1727;42.624;23.406;2022-10-31T05:44:40;21.70;;;9.00;;
3427;SDS011;1727;42.624;23.406;2022-10-31T05:47:07;22.53;;;9.40;;
3427;SDS011;1727;42.624;23.406;2022-10-31T05:49:34;18.27;;;9.33;;
3427;SDS011;1727;42.624;23.406;2022-10-31T05:52:00;23.97;;;8.70;;
3427;SDS011;1727;42.624;23.406;2022-10-31T05:54:27;24.17;;;8.63;;
3427;SDS011;1727;42.624;23.406;2022-10-31T05:56:54;15.80;;;9.30;;
3427;SDS011;1727;42.624;23.406;2022-10-31T05:59:21;17.20;;;10.30;;
3427;SDS011;1727;42.624;23.406;2022-10-31T06:01:49;16.63;;;9.33;;
3427;SDS011;1727;42.624;23.406;2022-10-31T06:04:15;14.30;;;9.37;;
3427;SDS011;1727;42.624;23.406;2022-10-31T06:06:42;21.00;;;12.00;;
3427;SDS011;1727;42.624;23.406;2022-10-31T06:09:09;17.50;;;9.70;;
3427;SDS011;1727;42.624;23.406;2022-10-31T06:11:36;22.60;;;10.00;;
3427;SDS011;1727;42.624;23.406;2022-10-31T06:14:02;11.30;;;9.37;;
3427;SDS011;1727;42.624;23.406;2022-10-31T06:16:30;14.43;;;8.23;;
3427;SDS011;1727;42.624;23.406;2022-10-31T06:18:58;23.47;;;8.37;;
3427;SDS011;1727;42.624;23.406;2022-10-31T06:21:25;14.40;;;7.83;;
3427;SDS011;1727;42.624;23.406;2022-10-31T06:23:52;21.23;;;6.60;;
3427;SDS011;1727;42.624;23.406;2022-10-31T06:26:18;14.80;;;6.97;;
3427;SDS011;1727;42.624;23.406;2022-10-31T06:28:45;12.23;;;6.23;;
3427;SDS011;1727;42.624;23.406;2022-10-31T06:31:12;12.33;;;6.07;;
3427;SDS011;1727;42.624;23.406;2022-10-31T06:33:40;9.27;;;5.77;;
3427;SDS011;1727;42.624;23.406;2022-10-31T06:36:09;10.50;;;6.17;;
3427;SDS011;1727;42.624;23.406;2022-10-31T06:38:36;8.20;;;6.20;;
3427;SDS011;1727;42.624;23.406;2022-10-31T06:41:03;17.57;;;6.70;;
3427;SDS011;1727;42.624;23.406;2022-10-31T06:43:31;12.33;;;7.77;;
3427;SDS011;1727;42.624;23.406;2022-10-31T06:46:03;14.50;;;6.80;;
3427;SDS011;1727;42.624;23.406;2022-10-31T06:48:34;12.50;;;6.90;;
3427;SDS011;1727;42.624;23.406;2022-10-31T06:51:03;14.40;;;8.60;;
3427;SDS011;1727;42.624;23.406;2022-10-31T06:53:35;16.43;;;10.67;;
3427;SDS011;1727;42.624;23.406;2022-10-31T06:56:01;18.53;;;10.67;;
3427;SDS011;1727;42.624;23.406;2022-10-31T06:58:28;21.37;;;11.80;;
3427;SDS011;1727;42.624;23.406;2022-10-31T07:00:58;22.60;;;12.10;;
3427;SDS011;1727;42.624;23.406;2022-10-31T07:03:25;18.07;;;11.33;;
3427;SDS011;1727;42.624;23.406;2022-10-31T07:05:52;20.83;;;11.60;;
3427;SDS011;1727;42.624;23.406;2022-10-31T07:08:21;42.87;;;12.37;;
3427;SDS011;1727;42.624;23.406;2022-10-31T07:10:52;30.07;;;11.83;;
3427;SDS011;1727;42.624;23.406;2022-10-31T07:13:20;22.73;;;10.70;;
3427;SDS011;1727;42.624;23.406;2022-10-31T07:15:50;23.00;;;10.60;;
3427;SDS011;1727;42.624;23.406;2022-10-31T07:18:18;17.57;;;11.67;;
3427;SDS011;1727;42.624;23.406;2022-10-31T07:20:45;25.43;;;10.33;;
3427;SDS011;1727;42.624;23.406;2022-10-31T07:23:12;20.50;;;10.40;;
3427;SDS011;1727;42.624;23.406;2022-10-31T07:25:39;22.10;;;10.20;;
3427;SDS011;1727;42.624;23.406;2022-10-31T07:28:08;19.33;;;10.53;;
3427;SDS011;1727;42.624;23.406;2022-10-31T07:30:35;16.93;;;9.70;;
3427;SDS011;1727;42.624;23.406;2022-10-31T07:33:02;19.80;;;11.17;;
3427;SDS011;1727;42.624;23.406;2022-10-31T07:35:30;20.50;;;10.70;;
3427;SDS011;1727;42.624;23.406;2022-10-31T07:37:57;32.17;;;11.60;;
3427;SDS011;1727;42.624;23.406;2022-10-31T07:40:33;20.73;;;11.20;;
3427;SDS011;1727;42.624;23.406;2022-10-31T07:43:00;16.23;;;10.63;;
3427;SDS011;1727;42.624;23.406;2022-10-31T07:45:28;34.30;;;10.70;;
3427;SDS011;1727;42.624;23.406;2022-10-31T07:47:55;22.40;;;10.93;;
3427;SDS011;1727;42.624;23.406;2022-10-31T07:50:25;19.13;;;11.53;;
3427;SDS011;1727;42.624;23.406;2022-10-31T07:53:00;19.80;;;10.53;;
3427;SDS011;1727;42.624;23.406;2022-10-31T07:55:28;18.27;;;10.07;;
3427;SDS011;1727;42.624;23.406;2022-10-31T07:57:58;20.33;;;12.47;;
3427;SDS011;1727;42.624;23.406;2022-10-31T08:00:26;15.30;;;10.00;;
3427;SDS011;1727;42.624;23.406;2022-10-31T08:02:58;18.47;;;11.73;;
3427;SDS011;1727;42.624;23.406;2022-10-31T08:05:26;25.37;;;11.60;;
3427;SDS011;1727;42.624;23.406;2022-10-31T08:07:53;29.47;;;13.60;;
3427;SDS011;1727;42.624;23.406;2022-10-31T08:10:20;19.70;;;12.27;;
3427;SDS011;1727;42.624;23.406;2022-10-31T08:12:47;15.20;;;11.17;;
3427;SDS011;1727;42.624;23.406;2022-10-31T08:15:20;17.97;;;12.03;;
3427;SDS011;1727;42.624;23.406;2022-10-31T08:17:47;27.53;;;12.07;;
3427;SDS011;1727;42.624;23.406;2022-10-31T08:20:15;22.90;;;12.30;;
3427;SDS011;1727;42.624;23.406;2022-10-31T08:22:42;20.87;;;11.93;;
3427;SDS011;1727;42.624;23.406;2022-10-31T08:25:09;23.50;;;13.00;;
3427;SDS011;1727;42.624;23.406;2022-10-31T08:27:35;22.60;;;12.87;;
3427;SDS011;1727;42.624;23.406;2022-10-31T08:30:04;23.47;;;13.80;;
3427;SDS011;1727;42.624;23.406;2022-10-31T08:32:32;19.17;;;12.47;;
3427;SDS011;1727;42.624;23.406;2022-10-31T08:34:59;22.30;;;14.87;;
3427;SDS011;1727;42.624;23.406;2022-10-31T08:37:27;21.37;;;13.93;;
3427;SDS011;1727;42.624;23.406;2022-10-31T08:39:53;24.13;;;14.50;;
3427;SDS011;1727;42.624;23.406;2022-10-31T08:42:22;20.60;;;14.47;;
3427;SDS011;1727;42.624;23.406;2022-10-31T08:45:07;22.93;;;13.30;;
3427;SDS011;1727;42.624;23.406;2022-10-31T08:47:34;22.40;;;14.27;;
3427;SDS011;1727;42.624;23.406;2022-10-31T08:50:01;23.40;;;14.63;;
3427;SDS011;1727;42.624;23.406;2022-10-31T08:52:29;18.70;;;15.67;;
3427;SDS011;1727;42.624;23.406;2022-10-31T08:54:56;22.37;;;14.37;;
3427;SDS011;1727;42.624;23.406;2022-10-31T08:57:23;21.83;;;16.47;;
3427;SDS011;1727;42.624;23.406;2022-10-31T08:59:49;18.57;;;13.40;;
3427;SDS011;1727;42.624;23.406;2022-10-31T09:02:16;21.20;;;12.60;;
3427;SDS011;1727;42.624;23.406;2022-10-31T09:04:43;22.03;;;12.90;;
3427;SDS011;1727;42.624;23.406;2022-10-31T09:07:10;17.90;;;13.60;;
3427;SDS011;1727;42.624;23.406;2022-10-31T09:09:38;16.93;;;13.73;;
3427;SDS011;1727;42.624;23.406;2022-10-31T09:12:05;18.73;;;14.07;;
3427;SDS011;1727;42.624;23.406;2022-10-31T09:14:31;17.90;;;13.30;;
3427;SDS011;1727;42.624;23.406;2022-10-31T09:16:58;19.60;;;13.73;;
3427;SDS011;1727;42.624;23.406;2022-10-31T09:19:25;27.40;;;13.43;;
3427;SDS011;1727;42.624;23.406;2022-10-31T09:21:52;22.07;;;12.00;;
3427;SDS011;1727;42.624;23.406;2022-10-31T09:24:20;17.03;;;12.83;;
3427;SDS011;1727;42.624;23.406;2022-10-31T09:26:48;18.03;;;12.20;;
3427;SDS011;1727;42.624;23.406;2022-10-31T09:29:15;19.67;;;12.80;;
3427;SDS011;1727;42.624;23.406;2022-10-31T09:31:41;17.70;;;12.73;;
3427;SDS011;1727;42.624;23.406;2022-10-31T09:34:08;16.53;;;11.40;;
3427;SDS011;1727;42.624;23.406;2022-10-31T09:36:35;18.70;;;11.50;;
3427;SDS011;1727;42.624;23.406;2022-10-31T09:39:02;17.63;;;12.10;;
3427;SDS011;1727;42.624;23.406;2022-10-31T09:41:30;18.43;;;11.23;;
3427;SDS011;1727;42.624;23.406;2022-10-31T09:44:11;17.17;;;11.83;;
3427;SDS011;1727;42.624;23.406;2022-10-31T09:46:52;19.10;;;12.47;;
3427;SDS011;1727;42.624;23.406;2022-10-31T09:49:32;19.53;;;12.23;;
3427;SDS011;1727;42.624;23.406;2022-10-31T09:52:09;25.27;;;12.07;;
3427;SDS011;1727;42.624;23.406;2022-10-31T09:54:45;23.00;;;11.70;;
3427;SDS011;1727;42.624;23.406;2022-10-31T09:57:16;26.40;;;13.63;;
3427;SDS011;1727;42.624;23.406;2022-10-31T09:59:47;23.80;;;12.37;;
3427;SDS011;1727;42.624;23.406;2022-10-31T10:02:16;23.70;;;12.67;;
3427;SDS011;1727;42.624;23.406;2022-10-31T10:04:50;21.23;;;12.63;;
3427;SDS011;1727;42.624;23.406;2022-10-31T10:07:24;20.20;;;11.53;;
3427;SDS011;1727;42.624;23.406;2022-10-31T10:09:56;13.53;;;9.83;;
3427;SDS011;1727;42.624;23.406;2022-10-31T10:12:28;16.97;;;11.60;;
3427;SDS011;1727;42.624;23.406;2022-10-31T10:15:16;19.20;;;10.03;;
3427;SDS011;1727;42.624;23.406;2022-10-31T10:17:55;12.80;;;9.40;;
3427;SDS011;1727;42.624;23.406;2022-10-31T10:20:31;24.73;;;11.83;;
3427;SDS011;1727;42.624;23.406;2022-10-31T10:23:08;17.90;;;10.20;;
3427;SDS011;1727;42.624;23.406;2022-10-31T10:25:56;24.33;;;11.63;;
3427;SDS011;1727;42.624;23.406;2022-10-31T10:28:28;21.90;;;10.93;;
3427;SDS011;1727;42.624;23.406;2022-10-31T10:31:05;20.30;;;10.30;;
3427;SDS011;1727;42.624;23.406;2022-10-31T10:33:36;19.00;;;10.80;;
3427;SDS011;1727;42.624;23.406;2022-10-31T10:36:08;11.67;;;10.10;;
3427;SDS011;1727;42.624;23.406;2022-10-31T10:38:39;18.80;;;9.20;;
3427;SDS011;1727;42.624;23.406;2022-10-31T10:41:16;6.50;;;4.67;;
3427;SDS011;1727;42.624;23.406;2022-10-31T10:43:44;7.30;;;5.57;;
3427;SDS011;1727;42.624;23.406;2022-10-31T10:46:19;13.70;;;5.50;;
3427;SDS011;1727;42.624;23.406;2022-10-31T10:49:15;11.30;;;5.27;;
3427;SDS011;1727;42.624;23.406;2022-10-31T10:51:44;12.30;;;5.27;;
3427;SDS011;1727;42.624;23.406;2022-10-31T10:54:20;12.60;;;6.70;;
3427;SDS011;1727;42.624;23.406;2022-10-31T10:57:09;12.10;;;7.17;;
3427;SDS011;1727;42.624;23.406;2022-10-31T10:59:44;6.47;;;5.43;;
3427;SDS011;1727;42.624;23.406;2022-10-31T11:02:15;9.47;;;4.87;;
3427;SDS011;1727;42.624;23.406;2022-10-31T11:04:44;12.70;;;6.07;;
3427;SDS011;1727;42.624;23.406;2022-10-31T11:07:13;12.40;;;5.30;;
3427;SDS011;1727;42.624;23.406;2022-10-31T11:09:40;16.07;;;6.57;;
3427;SDS011;1727;42.624;23.406;2022-10-31T11:12:08;15.70;;;5.93;;
3427;SDS011;1727;42.624;23.406;2022-10-31T11:14:36;16.03;;;7.10;;
3427;SDS011;1727;42.624;23.406;2022-10-31T11:17:15;8.20;;;5.37;;
3427;SDS011;1727;42.624;23.406;2022-10-31T11:20:02;13.97;;;6.97;;
3427;SDS011;1727;42.624;23.406;2022-10-31T11:22:30;12.70;;;5.50;;
3427;SDS011;1727;42.624;23.406;2022-10-31T11:24:57;9.73;;;6.10;;
3427;SDS011;1727;42.624;23.406;2022-10-31T11:27:25;9.83;;;5.83;;
3427;SDS011;1727;42.624;23.406;2022-10-31T11:29:52;8.90;;;5.47;;
3427;SDS011;1727;42.624;23.406;2022-10-31T11:32:32;7.10;;;3.93;;
3427;SDS011;1727;42.624;23.406;2022-10-31T11:35:00;7.70;;;4.67;;
3427;SDS011;1727;42.624;23.406;2022-10-31T11:37:35;11.40;;;6.33;;
3427;SDS011;1727;42.624;23.406;2022-10-31T11:40:14;5.40;;;3.70;;
3427;SDS011;1727;42.624;23.406;2022-10-31T11:42:43;6.73;;;4.00;;
3427;SDS011;1727;42.624;23.406;2022-10-31T11:45:14;6.00;;;4.00;;
3427;SDS011;1727;42.624;23.406;2022-10-31T11:47:44;6.03;;;4.20;;
3427;SDS011;1727;42.624;23.406;2022-10-31T11:50:18;4.60;;;3.87;;
3427;SDS011;1727;42.624;23.406;2022-10-31T11:52:46;12.17;;;3.90;;
3427;SDS011;1727;42.624;23.406;2022-10-31T11:55:15;8.97;;;4.30;;
3427;SDS011;1727;42.624;23.406;2022-10-31T11:57:47;11.40;;;4.70;;
3427;SDS011;1727;42.624;23.406;2022-10-31T12:00:21;9.07;;;4.80;;
3427;SDS011;1727;42.624;23.406;2022-10-31T12:02:50;5.77;;;3.83;;
3427;SDS011;1727;42.624;23.406;2022-10-31T12:05:30;9.20;;;4.20;;
3427;SDS011;1727;42.624;23.406;2022-10-31T12:07:58;6.73;;;4.10;;
3427;SDS011;1727;42.624;23.406;2022-10-31T12:10:28;5.03;;;4.17;;
3427;SDS011;1727;42.624;23.406;2022-10-31T12:13:17;7.67;;;4.80;;
3427;SDS011;1727;42.624;23.406;2022-10-31T12:15:59;9.60;;;4.13;;
3427;SDS011;1727;42.624;23.406;2022-10-31T12:18:38;8.80;;;4.00;;
3427;SDS011;1727;42.624;23.406;2022-10-31T12:24:13;7.60;;;4.87;;
3427;SDS011;1727;42.624;23.406;2022-10-31T12:26:50;8.50;;;4.87;;
3427;SDS011;1727;42.624;23.406;2022-10-31T12:29:29;8.83;;;5.50;;
3427;SDS011;1727;42.624;23.406;2022-10-31T12:32:14;5.67;;;4.50;;
3427;SDS011;1727;42.624;23.406;2022-10-31T12:35:03;6.30;;;4.70;;
3427;SDS011;1727;42.624;23.406;2022-10-31T12:37:46;8.07;;;4.17;;
3427;SDS011;1727;42.624;23.406;2022-10-31T12:40:28;5.63;;;4.47;;
3427;SDS011;1727;42.624;23.406;2022-10-31T12:43:08;13.80;;;4.53;;
3427;SDS011;1727;42.624;23.406;2022-10-31T12:45:44;8.13;;;5.20;;
3427;SDS011;1727;42.624;23.406;2022-10-31T12:51:24;7.67;;;4.20;;
3427;SDS011;1727;42.624;23.406;2022-10-31T12:54:12;11.17;;;4.53;;
3427;SDS011;1727;42.624;23.406;2022-10-31T12:57:00;7.00;;;4.70;;
3427;SDS011;1727;42.624;23.406;2022-10-31T12:59:35;8.60;;;5.10;;
3427;SDS011;1727;42.624;23.406;2022-10-31T13:02:09;8.77;;;4.00;;
3427;SDS011;1727;42.624;23.406;2022-10-31T13:04:43;5.53;;;3.90;;
3427;SDS011;1727;42.624;23.406;2022-10-31T13:07:17;7.60;;;4.27;;
3427;SDS011;1727;42.624;23.406;2022-10-31T13:09:51;6.40;;;4.57;;
3427;SDS011;1727;42.624;23.406;2022-10-31T13:12:23;6.20;;;4.30;;
3427;SDS011;1727;42.624;23.406;2022-10-31T13:14:52;7.60;;;4.83;;
3427;SDS011;1727;42.624;23.406;2022-10-31T13:17:23;12.00;;;3.97;;
3427;SDS011;1727;42.624;23.406;2022-10-31T13:19:57;17.50;;;5.03;;
3427;SDS011;1727;42.624;23.406;2022-10-31T13:22:33;10.90;;;4.53;;
3427;SDS011;1727;42.624;23.406;2022-10-31T13:25:02;13.60;;;4.83;;
3427;SDS011;1727;42.624;23.406;2022-10-31T13:27:40;15.07;;;4.43;;
3427;SDS011;1727;42.624;23.406;2022-10-31T13:30:14;10.53;;;5.10;;
3427;SDS011;1727;42.624;23.406;2022-10-31T13:32:43;8.30;;;5.23;;
3427;SDS011;1727;42.624;23.406;2022-10-31T13:35:15;8.40;;;4.80;;
3427;SDS011;1727;42.624;23.406;2022-10-31T13:37:51;7.40;;;5.50;;
3427;SDS011;1727;42.624;23.406;2022-10-31T13:40:32;9.10;;;4.90;;
3427;SDS011;1727;42.624;23.406;2022-10-31T13:43:06;4.27;;;3.80;;
3427;SDS011;1727;42.624;23.406;2022-10-31T13:45:47;6.53;;;4.43;;
3427;SDS011;1727;42.624;23.406;2022-10-31T13:48:19;8.60;;;5.10;;
3427;SDS011;1727;42.624;23.406;2022-10-31T13:51:04;6.70;;;4.60;;
3427;SDS011;1727;42.624;23.406;2022-10-31T13:53:44;6.90;;;5.10;;
3427;SDS011;1727;42.624;23.406;2022-10-31T13:56:23;11.80;;;4.67;;
3427;SDS011;1727;42.624;23.406;2022-10-31T13:58:58;18.40;;;6.37;;
3427;SDS011;1727;42.624;23.406;2022-10-31T14:01:28;9.90;;;4.20;;
3427;SDS011;1727;42.624;23.406;2022-10-31T14:03:56;13.07;;;4.37;;
3427;SDS011;1727;42.624;23.406;2022-10-31T14:06:40;10.40;;;5.60;;
3427;SDS011;1727;42.624;23.406;2022-10-31T14:09:22;12.13;;;5.70;;
3427;SDS011;1727;42.624;23.406;2022-10-31T14:11:54;10.13;;;5.03;;
3427;SDS011;1727;42.624;23.406;2022-10-31T14:14:23;8.30;;;5.10;;
3427;SDS011;1727;42.624;23.406;2022-10-31T14:16:56;19.20;;;5.40;;
3427;SDS011;1727;42.624;23.406;2022-10-31T14:19:24;14.77;;;5.17;;
3427;SDS011;1727;42.624;23.406;2022-10-31T14:21:52;10.30;;;4.87;;
3427;SDS011;1727;42.624;23.406;2022-10-31T14:24:36;9.27;;;5.47;;
3427;SDS011;1727;42.624;23.406;2022-10-31T14:27:04;5.60;;;4.80;;
3427;SDS011;1727;42.624;23.406;2022-10-31T14:30:17;6.57;;;5.00;;
3427;SDS011;1727;42.624;23.406;2022-10-31T14:32:49;8.03;;;5.67;;
3427;SDS011;1727;42.624;23.406;2022-10-31T14:35:18;9.43;;;6.17;;
3427;SDS011;1727;42.624;23.406;2022-10-31T14:40:48;10.73;;;5.60;;
3427;SDS011;1727;42.624;23.406;2022-10-31T14:43:40;13.00;;;6.53;;
3427;SDS011;1727;42.624;23.406;2022-10-31T14:46:22;13.53;;;5.70;;
3427;SDS011;1727;42.624;23.406;2022-10-31T14:49:04;10.80;;;5.57;;
3427;SDS011;1727;42.624;23.406;2022-10-31T14:51:40;11.63;;;6.10;;
3427;SDS011;1727;42.624;23.406;2022-10-31T14:54:11;9.10;;;5.70;;
3427;SDS011;1727;42.624;23.406;2022-10-31T14:56:46;20.60;;;9.87;;
3427;SDS011;1727;42.624;23.406;2022-10-31T14:59:18;24.73;;;13.27;;
3427;SDS011;1727;42.624;23.406;2022-10-31T15:01:52;76.63;;;40.37;;
3427;SDS011;1727;42.624;23.406;2022-10-31T15:04:23;149.27;;;83.70;;
3427;SDS011;1727;42.624;23.406;2022-10-31T15:06:54;212.03;;;114.70;;
3427;SDS011;1727;42.624;23.406;2022-10-31T15:09:26;415.67;;;211.40;;
3427;SDS011;1727;42.624;23.406;2022-10-31T15:11:56;305.47;;;153.83;;
3427;SDS011;1727;42.624;23.406;2022-10-31T15:14:25;79.43;;;40.10;;
3427;SDS011;1727;42.624;23.406;2022-10-31T15:16:55;65.00;;;30.10;;
3427;SDS011;1727;42.624;23.406;2022-10-31T15:19:24;46.60;;;20.83;;
3427;SDS011;1727;42.624;23.406;2022-10-31T15:21:53;41.77;;;14.53;;